< < Back
Terminal Aerodrome Forecast


Current Version              Previous Versions:   1  2  3  4  5  6  7  8  9  

Terminal Aerodrome Forecast

391
FTUS42 KTAE 061700
TAFABY
TAF
KABY 061720Z 0618/0718 02007KT P6SM OVC008
     FM062000 02005KT P6SM OVC020
     FM062300 02006KT P6SM OVC050
     FM070100 VRB05KT P6SM SCT250=

Latest METAR

180
SAUS70 KWBC 070000 RRQ
MTRABY
METAR KABY 062353Z 00000KT 10SM CLR 08/04 A3040 RMK AO2 SLP295 T00830039
10089 20061 58001


USA.gov is the U.S. government's official web portal to all federal, state and local government web resources and services.